createdAt,value
2017-12-03T00:01:51.709Z,132.20
2017-12-03T00:04:20.576Z,136.97
2017-12-03T00:06:49.567Z,135.03
2017-12-03T00:09:18.565Z,131.07
2017-12-03T00:11:47.586Z,130.97
2017-12-03T00:14:16.809Z,129.70
2017-12-03T00:16:45.796Z,127.63
2017-12-03T00:19:15.928Z,118.37
2017-12-03T00:21:45.690Z,126.43
2017-12-03T00:24:14.786Z,122.47
2017-12-03T00:26:44.252Z,123.90
2017-12-03T00:29:13.311Z,115.10
2017-12-03T00:31:43.174Z,128.50
2017-12-03T00:34:12.575Z,116.17
2017-12-03T00:36:41.588Z,111.63
2017-12-03T00:39:10.607Z,110.17
2017-12-03T00:41:39.636Z,120.83
2017-12-03T00:44:09.444Z,121.13
2017-12-03T00:46:39.585Z,121.87
2017-12-03T00:49:08.571Z,106.97
2017-12-03T00:51:37.587Z,120.00
2017-12-03T00:54:06.892Z,113.20
2017-12-03T00:56:35.873Z,100.60
2017-12-03T00:59:04.947Z,116.07
2017-12-03T01:01:35.068Z,116.20
2017-12-03T01:04:04.835Z,106.43
2017-12-03T01:06:33.889Z,114.10
2017-12-03T01:09:02.979Z,116.83
2017-12-03T01:11:31.984Z,97.37
2017-12-03T01:14:01.015Z,109.17
2017-12-03T01:16:30.033Z,114.17
2017-12-03T01:18:59.025Z,98.30
2017-12-03T01:21:28.057Z,100.73
2017-12-03T01:24:14.592Z,95.63
2017-12-03T01:26:45.089Z,94.03
2017-12-03T01:29:13.917Z,95.60
2017-12-03T01:31:42.892Z,99.10
2017-12-03T01:34:11.887Z,101.10
2017-12-03T01:36:41.160Z,97.97
2017-12-03T01:39:10.150Z,96.57
2017-12-03T01:41:39.907Z,100.17
2017-12-03T01:44:08.956Z,91.50
2017-12-03T01:46:38.703Z,95.43
2017-12-03T01:49:07.682Z,91.77
2017-12-03T01:51:36.926Z,100.17
2017-12-03T01:54:05.911Z,106.30
2017-12-03T01:56:34.715Z,94.90
2017-12-03T01:59:03.522Z,87.30
2017-12-03T02:01:32.499Z,85.37
2017-12-03T02:04:01.487Z,87.23
2017-12-03T02:06:29.924Z,93.43
2017-12-03T02:08:58.251Z,96.70
2017-12-03T02:11:27.060Z,95.83
2017-12-03T02:13:56.372Z,87.20
2017-12-03T02:16:26.137Z,97.33
2017-12-03T02:18:55.132Z,101.40
2017-12-03T02:21:23.865Z,84.17
2017-12-03T02:23:53.620Z,95.73
2017-12-03T02:26:22.608Z,89.03
2017-12-03T02:28:51.610Z,90.57
2017-12-03T02:31:20.600Z,102.90
2017-12-03T02:33:49.588Z,100.63
2017-12-03T02:36:18.593Z,86.77
2017-12-03T02:38:47.282Z,93.83
2017-12-03T02:41:16.708Z,95.73
2017-12-03T02:43:45.709Z,87.80
2017-12-03T02:46:14.708Z,92.57
2017-12-03T02:48:43.706Z,97.53
2017-12-03T02:51:13.326Z,88.33
2017-12-03T02:53:42.341Z,97.83
2017-12-03T02:56:11.335Z,91.63
2017-12-03T02:58:40.817Z,96.50
2017-12-03T03:01:09.792Z,96.40
2017-12-03T03:03:39.563Z,89.77
2017-12-03T03:06:08.241Z,98.23
2017-12-03T03:08:37.229Z,96.77
2017-12-03T03:11:06.215Z,91.20
2017-12-03T03:13:35.116Z,93.10
2017-12-03T03:16:04.103Z,96.03
2017-12-03T03:18:33.174Z,98.07
2017-12-03T03:21:02.341Z,95.30
2017-12-03T03:23:31.339Z,96.20
2017-12-03T03:26:00.382Z,85.03
2017-12-03T03:28:29.671Z,97.77
2017-12-03T03:30:58.667Z,77.10
2017-12-03T03:33:27.656Z,87.43
2017-12-03T03:35:56.480Z,92.33
2017-12-03T03:38:24.795Z,87.97
2017-12-03T03:40:54.562Z,88.17
2017-12-03T03:43:23.527Z,89.80
2017-12-03T03:45:53.268Z,82.80
2017-12-03T03:48:23.485Z,89.97
2017-12-03T03:50:52.459Z,86.20
2017-12-03T03:53:21.449Z,86.33
2017-12-03T03:55:49.964Z,87.07
2017-12-03T03:58:19.874Z,86.60
2017-12-03T04:00:48.209Z,82.00
2017-12-03T04:03:17.303Z,78.93
2017-12-03T04:05:47.091Z,85.63
2017-12-03T04:08:16.072Z,90.63
2017-12-03T04:10:44.714Z,87.50
2017-12-03T04:13:13.810Z,85.27
2017-12-03T04:15:42.463Z,83.27
2017-12-03T04:18:12.510Z,89.73
2017-12-03T04:20:41.502Z,77.63
2017-12-03T04:23:10.476Z,81.33
2017-12-03T04:25:40.423Z,81.17
2017-12-03T04:28:09.057Z,87.57
2017-12-03T04:30:37.854Z,76.50
2017-12-03T04:33:07.878Z,83.53
2017-12-03T04:35:37.302Z,76.80
2017-12-03T04:38:05.960Z,80.00
2017-12-03T04:40:34.295Z,93.13
2017-12-03T04:43:02.946Z,74.47
2017-12-03T04:45:31.619Z,78.00
2017-12-03T04:48:01.331Z,79.97
2017-12-03T04:50:30.421Z,78.10
2017-12-03T04:52:59.844Z,74.97
2017-12-03T04:55:28.278Z,71.83
2017-12-03T04:57:56.943Z,75.10
2017-12-03T05:00:25.263Z,67.20
2017-12-03T05:02:53.960Z,68.27
2017-12-03T05:05:23.201Z,80.77
2017-12-03T05:07:51.552Z,66.70
2017-12-03T05:10:21.183Z,69.07
2017-12-03T05:12:49.638Z,69.93
2017-12-03T05:15:18.737Z,75.60
2017-12-03T05:17:47.414Z,78.40
2017-12-03T05:20:16.499Z,66.67
2017-12-03T05:22:45.584Z,71.97
2017-12-03T05:25:14.494Z,79.80
2017-12-03T05:27:43.592Z,76.13
2017-12-03T05:30:12.686Z,82.07
2017-12-03T05:32:42.126Z,81.80
2017-12-03T05:35:10.455Z,69.87
2017-12-03T05:37:39.564Z,72.10
2017-12-03T05:40:08.981Z,69.60
2017-12-03T05:42:37.309Z,79.30
2017-12-03T05:45:05.673Z,70.60
2017-12-03T05:47:34.184Z,68.93
2017-12-03T05:50:02.544Z,67.07
2017-12-03T05:52:31.200Z,73.83
2017-12-03T05:54:59.552Z,77.40
2017-12-03T05:57:28.652Z,72.57
2017-12-03T05:59:56.975Z,66.20
2017-12-03T06:02:25.612Z,78.70
2017-12-03T06:04:54.704Z,78.63
2017-12-03T06:07:23.786Z,75.93
2017-12-03T06:09:53.513Z,82.00
2017-12-03T06:12:22.921Z,74.90
2017-12-03T06:14:51.250Z,72.80
2017-12-03T06:17:19.661Z,68.30
2017-12-03T06:19:48.757Z,67.90
2017-12-03T06:22:18.305Z,77.00
2017-12-03T06:24:46.466Z,74.27
2017-12-03T06:27:15.254Z,62.03
2017-12-03T06:29:43.912Z,72.53
2017-12-03T06:32:13.359Z,74.43
2017-12-03T06:34:41.999Z,67.50
2017-12-03T06:37:10.319Z,64.97
2017-12-03T06:39:39.535Z,68.10
2017-12-03T06:42:08.869Z,65.50
2017-12-03T06:44:38.075Z,68.97
2017-12-03T06:47:06.577Z,70.47
2017-12-03T06:49:36.002Z,62.37
2017-12-03T06:52:04.326Z,64.97
2017-12-03T06:54:32.958Z,65.07
2017-12-03T06:57:01.282Z,68.13
2017-12-03T06:59:29.598Z,69.80
2017-12-03T07:01:58.472Z,64.43
2017-12-03T07:04:28.216Z,67.43
2017-12-03T07:06:56.888Z,62.77
2017-12-03T07:09:26.299Z,68.90
2017-12-03T07:11:55.755Z,63.80
2017-12-03T07:14:24.068Z,62.37
2017-12-03T07:16:53.057Z,59.17
2017-12-03T07:19:22.141Z,63.17
2017-12-03T07:21:51.420Z,65.57
2017-12-03T07:24:20.868Z,63.90
2017-12-03T07:26:49.191Z,62.40
2017-12-03T07:29:17.882Z,68.10
2017-12-03T07:31:46.571Z,70.73
2017-12-03T07:34:14.718Z,66.37
2017-12-03T07:36:43.045Z,62.57
2017-12-03T07:39:11.741Z,63.77
2017-12-03T07:41:41.210Z,60.80
2017-12-03T07:44:09.334Z,53.30
2017-12-03T07:46:37.902Z,59.87
2017-12-03T07:49:07.225Z,54.43
2017-12-03T07:51:36.147Z,51.63
2017-12-03T07:54:04.674Z,63.37
2017-12-03T07:56:33.632Z,54.90
2017-12-03T07:59:02.347Z,64.87
2017-12-03T08:01:32.263Z,59.43
2017-12-03T08:04:00.620Z,61.40
2017-12-03T08:06:29.266Z,52.17
2017-12-03T08:08:59.261Z,59.10
2017-12-03T08:11:27.766Z,56.83
2017-12-03T08:13:57.289Z,60.30
2017-12-03T08:16:26.346Z,53.63
2017-12-03T08:18:54.514Z,61.43
2017-12-03T08:21:23.444Z,56.40
2017-12-03T08:23:52.069Z,62.13
2017-12-03T08:26:20.566Z,52.50
2017-12-03T08:28:51.463Z,56.83
2017-12-03T08:31:20.111Z,63.67
2017-12-03T08:33:48.434Z,58.97
2017-12-03T08:36:16.827Z,58.67
2017-12-03T08:38:45.164Z,51.47
2017-12-03T08:41:14.169Z,54.70
2017-12-03T08:43:42.418Z,60.87
2017-12-03T08:46:11.719Z,61.30
2017-12-03T08:48:41.365Z,59.50
2017-12-03T08:51:10.063Z,67.90
2017-12-03T08:53:38.699Z,65.40
2017-12-03T08:56:07.369Z,53.40
2017-12-03T08:58:36.787Z,57.23
2017-12-03T09:01:05.588Z,62.77
2017-12-03T09:03:33.914Z,69.67
2017-12-03T09:06:02.246Z,65.00
2017-12-03T09:08:30.869Z,64.47
2017-12-03T09:10:59.671Z,57.03
2017-12-03T09:13:29.194Z,63.40
2017-12-03T09:15:57.354Z,60.60
2017-12-03T09:18:26.446Z,62.30
2017-12-03T09:20:56.502Z,67.47
2017-12-03T09:23:25.176Z,67.77
2017-12-03T09:25:53.491Z,63.70
2017-12-03T09:28:22.138Z,64.27
2017-12-03T09:30:53.001Z,67.47
2017-12-03T09:33:22.105Z,73.07
2017-12-03T09:35:50.445Z,69.73
2017-12-03T09:38:19.924Z,69.37
2017-12-03T09:40:48.218Z,71.73
2017-12-03T09:43:18.492Z,69.37
2017-12-03T09:45:47.126Z,69.27
2017-12-03T09:48:28.152Z,69.83
2017-12-03T09:50:59.757Z,74.47
2017-12-03T09:53:28.851Z,72.20
2017-12-03T09:55:57.501Z,75.60
2017-12-03T09:58:26.190Z,72.67
2017-12-03T10:00:54.498Z,69.63
2017-12-03T10:03:24.349Z,72.67
2017-12-03T10:05:53.494Z,76.47
2017-12-03T10:08:22.779Z,68.97
2017-12-03T10:10:51.329Z,80.50
2017-12-03T10:13:20.076Z,69.13
2017-12-03T10:15:49.167Z,67.20
2017-12-03T10:18:18.871Z,80.63
2017-12-03T10:20:48.662Z,71.83
2017-12-03T10:23:17.475Z,65.33
2017-12-03T10:25:45.815Z,68.37
2017-12-03T10:28:14.522Z,73.00
2017-12-03T10:30:42.862Z,77.07
2017-12-03T10:33:11.337Z,71.87
2017-12-03T10:35:40.024Z,69.70
2017-12-03T10:38:15.298Z,70.73
2017-12-03T10:40:44.156Z,69.53
2017-12-03T10:43:13.970Z,70.63
2017-12-03T10:45:43.790Z,67.13
2017-12-03T10:48:15.285Z,77.37
2017-12-03T10:50:44.950Z,69.67
2017-12-03T10:53:14.130Z,59.73
2017-12-03T10:55:43.888Z,68.83
2017-12-03T10:58:13.023Z,62.00
2017-12-03T11:00:42.451Z,66.07
2017-12-03T11:03:11.273Z,66.63
2017-12-03T11:05:39.941Z,69.60
2017-12-03T11:08:08.604Z,60.10
2017-12-03T11:10:38.920Z,72.77
2017-12-03T11:15:08.984Z,64.43
2017-12-03T11:17:39.272Z,49.80
2017-12-03T11:20:08.096Z,62.40
2017-12-03T11:22:40.802Z,58.97
2017-12-03T11:25:13.480Z,57.30
2017-12-03T11:27:45.192Z,61.60
2017-12-03T11:30:17.668Z,55.60
2017-12-03T11:32:47.072Z,57.00
2017-12-03T11:35:16.992Z,56.30
2017-12-03T11:37:46.012Z,59.27
2017-12-03T11:40:15.112Z,57.63
2017-12-03T11:42:44.470Z,58.77
2017-12-03T11:45:14.195Z,58.23
2017-12-03T11:47:43.313Z,64.57
2017-12-03T11:50:12.827Z,60.47
2017-12-03T11:52:41.786Z,57.03
2017-12-03T11:55:10.758Z,53.37
2017-12-03T11:57:41.312Z,51.57
2017-12-03T12:00:10.393Z,56.40
2017-12-03T12:02:39.371Z,56.57
2017-12-03T12:05:09.290Z,56.17
2017-12-03T12:07:38.325Z,55.60
2017-12-03T12:10:07.301Z,58.83
2017-12-03T12:12:36.695Z,57.23
2017-12-03T12:15:05.682Z,56.43
2017-12-03T12:17:34.778Z,54.40
2017-12-03T12:20:04.732Z,52.97
2017-12-03T12:22:33.557Z,52.27
2017-12-03T12:25:02.553Z,49.70
2017-12-03T12:27:31.596Z,57.27
2017-12-03T12:30:01.351Z,54.70
2017-12-03T12:32:30.359Z,63.43
2017-12-03T12:34:59.814Z,62.73
2017-12-03T12:37:28.577Z,50.50
2017-12-03T12:39:57.487Z,60.30
2017-12-03T12:42:26.346Z,56.33
2017-12-03T12:44:56.255Z,61.93
2017-12-03T12:47:24.844Z,56.13
2017-12-03T12:49:53.527Z,52.03
2017-12-03T12:52:23.666Z,58.27
2017-12-03T12:54:52.925Z,50.77
2017-12-03T12:57:22.597Z,56.57
2017-12-03T12:59:52.522Z,51.20
2017-12-03T13:02:22.412Z,50.23
2017-12-03T13:04:52.202Z,49.67
2017-12-03T13:07:21.662Z,49.80
2017-12-03T13:09:51.382Z,46.67
2017-12-03T13:12:20.857Z,55.43
2017-12-03T13:14:50.366Z,51.30
2017-12-03T13:17:19.858Z,44.00
2017-12-03T13:19:49.423Z,47.77
2017-12-03T13:22:19.728Z,44.70
2017-12-03T13:24:52.220Z,47.93
2017-12-03T13:27:22.394Z,43.47
2017-12-03T13:29:51.827Z,43.70
2017-12-03T13:32:21.780Z,48.83
2017-12-03T13:34:51.195Z,54.57
2017-12-03T13:37:21.422Z,49.47
2017-12-03T13:39:51.618Z,44.17
2017-12-03T13:42:21.194Z,51.50
2017-12-03T13:44:50.631Z,54.33
2017-12-03T13:47:20.069Z,52.17
2017-12-03T13:49:49.675Z,51.27
2017-12-03T13:52:19.907Z,53.13
2017-12-03T13:54:49.351Z,54.57
2017-12-03T13:57:18.582Z,51.07
2017-12-03T13:59:48.604Z,50.57
2017-12-03T14:02:19.208Z,57.43
2017-12-03T14:04:48.638Z,50.80
2017-12-03T14:07:18.015Z,51.87
2017-12-03T14:09:47.749Z,54.63
2017-12-03T14:12:18.789Z,52.13
2017-12-03T14:14:48.603Z,57.27
2017-12-03T14:17:18.909Z,53.60
2017-12-03T14:19:48.531Z,56.50
2017-12-03T14:22:17.967Z,57.77
2017-12-03T14:24:47.755Z,51.13
2017-12-03T14:27:17.405Z,50.67
2017-12-03T14:29:46.988Z,57.80
2017-12-03T14:32:17.406Z,56.47
2017-12-03T14:34:47.630Z,53.03
2017-12-03T14:37:17.584Z,66.13
2017-12-03T14:39:47.040Z,60.17
2017-12-03T14:42:17.739Z,60.37
2017-12-03T14:44:48.818Z,66.50
2017-12-03T14:47:19.452Z,63.20
2017-12-03T14:49:49.666Z,63.20
2017-12-03T14:52:20.147Z,58.00
2017-12-03T14:54:49.772Z,70.20
2017-12-03T14:57:19.929Z,68.60
2017-12-03T14:59:49.365Z,70.03
2017-12-03T15:02:18.834Z,69.47
2017-12-03T15:04:48.594Z,69.93
2017-12-03T15:07:19.159Z,71.53
2017-12-03T15:09:50.205Z,70.63
2017-12-03T15:12:20.488Z,70.17
2017-12-03T15:14:49.597Z,65.40
2017-12-03T15:17:19.242Z,67.87
2017-12-03T15:19:48.590Z,82.17
2017-12-03T15:22:19.375Z,79.83
2017-12-03T15:24:48.722Z,74.03
2017-12-03T15:27:17.470Z,74.57
2017-12-03T15:29:46.308Z,70.10
2017-12-03T15:32:15.416Z,84.60
2017-12-03T15:34:44.167Z,71.87
2017-12-03T15:37:13.283Z,76.73
2017-12-03T15:39:42.230Z,81.93
2017-12-03T15:42:11.661Z,87.43
2017-12-03T15:44:40.564Z,80.87
2017-12-03T15:47:09.366Z,82.47
2017-12-03T15:49:37.766Z,87.67
2017-12-03T15:52:06.728Z,86.73
2017-12-03T15:54:35.596Z,86.87
2017-12-03T15:57:04.648Z,84.60
2017-12-03T15:59:33.631Z,93.93
2017-12-03T16:02:02.874Z,86.90
2017-12-03T16:04:32.031Z,99.10
2017-12-03T16:07:01.513Z,101.83
2017-12-03T16:09:30.608Z,97.20
2017-12-03T16:11:59.374Z,100.20
2017-12-03T16:14:28.695Z,103.40
2017-12-03T16:16:57.466Z,99.53
2017-12-03T16:19:26.896Z,98.77
2017-12-03T16:24:32.031Z,110.70
2017-12-03T16:27:02.076Z,113.50
2017-12-03T16:29:30.850Z,111.43
2017-12-03T16:31:59.848Z,111.30
2017-12-03T16:34:28.649Z,139.80
2017-12-03T16:36:57.908Z,131.83
2017-12-03T16:39:27.219Z,122.37
2017-12-03T16:41:56.746Z,137.50
2017-12-03T16:44:25.845Z,148.13
2017-12-03T16:46:55.391Z,155.30
2017-12-03T16:49:25.155Z,139.37
2017-12-03T16:51:54.613Z,157.03
2017-12-03T16:54:24.829Z,154.53
2017-12-03T16:56:54.716Z,151.53
2017-12-03T16:59:23.496Z,151.97
2017-12-03T17:01:52.937Z,162.03
2017-12-03T17:04:23.013Z,183.63
2017-12-03T17:06:52.446Z,165.50
2017-12-03T17:09:21.886Z,180.73
2017-12-03T17:11:51.417Z,176.27
2017-12-03T17:14:20.912Z,163.73
2017-12-03T17:16:50.356Z,178.87
2017-12-03T17:19:19.533Z,165.80
2017-12-03T17:21:48.974Z,164.77
2017-12-03T17:24:18.229Z,160.37
2017-12-03T17:26:46.813Z,183.87
2017-12-03T17:29:15.381Z,185.27
2017-12-03T17:31:44.213Z,169.20
2017-12-03T17:34:13.443Z,181.93
2017-12-03T17:36:42.882Z,167.50
2017-12-03T17:39:12.336Z,173.90
2017-12-03T17:41:42.097Z,187.03
2017-12-03T17:44:11.544Z,171.87
2017-12-03T17:46:41.058Z,190.63
2017-12-03T17:49:11.643Z,200.73
2017-12-03T17:51:41.579Z,191.03
2017-12-03T17:54:11.369Z,180.67
2017-12-03T17:56:40.831Z,175.37
2017-12-03T17:59:11.424Z,193.60
2017-12-03T18:01:41.621Z,192.07
2017-12-03T18:04:11.431Z,182.17
2017-12-03T18:06:40.907Z,183.20
2017-12-03T18:09:11.471Z,174.50
2017-12-03T18:11:40.936Z,169.03
2017-12-03T18:14:11.436Z,191.37
2017-12-03T18:16:41.489Z,209.60
2017-12-03T18:19:12.104Z,172.53
2017-12-03T18:21:41.521Z,171.80
2017-12-03T18:24:11.113Z,170.17
2017-12-03T18:26:43.585Z,193.13
2017-12-03T18:29:12.739Z,161.57
2017-12-03T18:31:41.828Z,172.37
2017-12-03T18:34:11.301Z,169.77
2017-12-03T18:36:41.090Z,159.53
2017-12-03T18:39:10.038Z,172.23
2017-12-03T18:41:39.289Z,157.93
2017-12-03T18:46:51.358Z,166.90
2017-12-03T18:49:31.710Z,190.30
2017-12-03T18:52:02.514Z,188.27
2017-12-03T18:54:32.000Z,172.23
2017-12-03T18:57:03.298Z,188.23
2017-12-03T18:59:36.113Z,174.40
2017-12-03T19:02:05.463Z,188.30
2017-12-03T19:04:34.171Z,187.83
2017-12-03T19:07:03.086Z,205.60
2017-12-03T19:09:46.054Z,213.67
2017-12-03T19:12:16.323Z,240.73
2017-12-03T19:14:45.459Z,211.80
2017-12-03T19:17:15.143Z,193.67
2017-12-03T19:19:44.471Z,194.17
2017-12-03T19:22:14.336Z,197.63
2017-12-03T19:24:43.787Z,222.77
2017-12-03T19:27:13.316Z,231.77
2017-12-03T19:29:42.794Z,238.77
2017-12-03T19:32:12.970Z,223.23
2017-12-03T19:34:42.493Z,240.60
2017-12-03T19:37:11.624Z,238.80
2017-12-03T19:39:42.814Z,273.90
2017-12-03T19:42:11.956Z,274.30
2017-12-03T19:44:41.391Z,286.43
2017-12-03T19:47:10.568Z,296.60
2017-12-03T19:49:43.467Z,285.87
2017-12-03T19:52:17.401Z,270.37
2017-12-03T19:54:47.344Z,237.87
2017-12-03T19:57:16.456Z,288.40
2017-12-03T19:59:46.006Z,335.60
2017-12-03T20:02:16.192Z,321.77
2017-12-03T20:04:45.290Z,265.30
2017-12-03T20:07:14.090Z,290.50
2017-12-03T20:09:44.302Z,340.37
2017-12-03T20:12:14.282Z,225.00
2017-12-03T20:14:43.400Z,279.80
2017-12-03T20:17:12.506Z,266.97
2017-12-03T20:19:41.968Z,208.50
2017-12-03T20:22:11.079Z,256.37
2017-12-03T20:24:40.186Z,216.63
2017-12-03T20:27:09.299Z,237.17
2017-12-03T20:29:38.055Z,258.33
2017-12-03T20:32:07.486Z,215.20
2017-12-03T20:34:36.686Z,257.60
2017-12-03T20:37:05.268Z,279.77
2017-12-03T20:39:33.873Z,230.73
2017-12-03T20:42:03.327Z,235.80
2017-12-03T20:44:32.235Z,251.80
2017-12-03T20:47:01.692Z,208.57
2017-12-03T20:49:31.240Z,260.50
2017-12-03T20:52:01.363Z,236.33
2017-12-03T20:54:30.622Z,252.70
2017-12-03T20:57:00.487Z,250.67
2017-12-03T20:59:29.922Z,208.90
2017-12-03T21:01:59.606Z,226.90
2017-12-03T21:04:29.479Z,233.80
2017-12-03T21:06:58.927Z,224.23
2017-12-03T21:09:28.062Z,203.27
2017-12-03T21:11:58.662Z,225.30
2017-12-03T21:14:28.912Z,226.40
2017-12-03T21:16:58.567Z,212.53
2017-12-03T21:19:27.829Z,211.40
2017-12-03T21:21:57.362Z,213.90
2017-12-03T21:24:26.769Z,222.33
2017-12-03T21:26:55.897Z,211.63
2017-12-03T21:29:25.621Z,307.70
2017-12-03T21:31:55.895Z,244.97
2017-12-03T21:34:25.335Z,225.80
2017-12-03T21:36:55.539Z,234.80
2017-12-03T21:39:25.326Z,208.30
2017-12-03T21:41:54.753Z,204.87
2017-12-03T21:44:24.348Z,214.97
2017-12-03T21:46:53.814Z,224.97
2017-12-03T21:49:23.307Z,226.57
2017-12-03T21:51:53.908Z,226.80
2017-12-03T21:54:23.662Z,229.53
2017-12-03T21:56:52.922Z,238.67
2017-12-03T21:59:22.930Z,274.77
2017-12-03T22:01:52.375Z,248.47
2017-12-03T22:04:22.147Z,253.23
2017-12-03T22:06:51.414Z,214.90
2017-12-03T22:09:20.889Z,190.13
2017-12-03T22:11:50.624Z,219.67
2017-12-03T22:14:20.896Z,211.37
2017-12-03T22:16:50.869Z,180.03
2017-12-03T22:19:22.672Z,184.13
2017-12-03T22:21:52.507Z,224.90
2017-12-03T22:24:21.936Z,190.97
2017-12-03T22:26:51.398Z,204.53
2017-12-03T22:29:20.893Z,185.27
2017-12-03T22:31:50.327Z,168.33
2017-12-03T22:34:19.558Z,156.67
2017-12-03T22:36:49.676Z,177.47
2017-12-03T22:39:19.141Z,154.40
2017-12-03T22:41:48.941Z,152.87
2017-12-03T22:44:18.746Z,163.53
2017-12-03T22:46:48.194Z,158.13
2017-12-03T22:49:17.635Z,156.73
2017-12-03T22:51:47.468Z,146.67
2017-12-03T22:54:16.912Z,155.53
2017-12-03T22:56:46.338Z,141.47
2017-12-03T22:59:15.804Z,145.43
2017-12-03T23:01:45.242Z,145.27
2017-12-03T23:04:14.030Z,138.73
2017-12-03T23:06:44.593Z,126.83
2017-12-03T23:09:14.039Z,123.33
2017-12-03T23:11:44.675Z,119.80
2017-12-03T23:14:14.182Z,129.43
2017-12-03T23:16:43.635Z,129.20
2017-12-03T23:19:13.255Z,132.17
2017-12-03T23:21:42.703Z,139.40
2017-12-03T23:24:12.185Z,131.87
2017-12-03T23:26:41.174Z,129.67
2017-12-03T23:29:10.443Z,131.87
2017-12-03T23:31:39.883Z,119.40
2017-12-03T23:34:09.429Z,120.77
2017-12-03T23:36:39.096Z,114.40
2017-12-03T23:39:08.594Z,108.27
2017-12-03T23:41:37.700Z,127.37
2017-12-03T23:44:07.151Z,118.90
2017-12-03T23:46:36.662Z,126.47
2017-12-03T23:49:06.186Z,109.20
2017-12-03T23:51:34.957Z,111.23
2017-12-03T23:54:04.207Z,106.90
2017-12-03T23:56:33.679Z,113.50
2017-12-03T23:59:03.330Z,102.07
